Terminal Aerodrome Forecast
Issued by NWS

Home | Current Version | Previous Version | Text Only | Print | Product List | Glossary On
Versions: 1 2 3 4 5 6 7 8 9 10 11 12 13 14 15
539
FTUS44 KEPZ 282320
TAFLRU
TAF
KLRU 282320Z 2900/2924 24022G32KT 6SM BLDU FEW110
      TEMPO 2900/2902 5SM BLDU
     FM290200 26015G25KT P6SM FEW110
     FM290700 28010KT P6SM SKC
     FM291500 28014G24KT P6SM FEW080
     FM291800 27020G30KT P6SM FEW080=

USA.gov is the U.S. government's official web portal to all federal, state and local government web resources and services.